sensor_id;sensor_type;location;lat;lon;timestamp;P1;durP1;ratioP1;P2;durP2;ratioP2
5867;SDS011;2960;49.142;7.768;2023-04-01T00:02:02;9.37;;;4.13;;
5867;SDS011;2960;49.142;7.768;2023-04-01T00:04:29;9.20;;;4.13;;
5867;SDS011;2960;49.142;7.768;2023-04-01T00:06:57;9.90;;;4.40;;
5867;SDS011;2960;49.142;7.768;2023-04-01T00:09:24;10.50;;;4.30;;
5867;SDS011;2960;49.142;7.768;2023-04-01T00:11:51;9.83;;;4.07;;
5867;SDS011;2960;49.142;7.768;2023-04-01T00:14:19;10.20;;;4.60;;
5867;SDS011;2960;49.142;7.768;2023-04-01T00:16:46;11.87;;;4.30;;
5867;SDS011;2960;49.142;7.768;2023-04-01T00:19:14;10.23;;;4.30;;
5867;SDS011;2960;49.142;7.768;2023-04-01T00:21:41;9.40;;;4.10;;
5867;SDS011;2960;49.142;7.768;2023-04-01T00:24:08;10.30;;;4.20;;
5867;SDS011;2960;49.142;7.768;2023-04-01T00:26:35;9.60;;;4.30;;
5867;SDS011;2960;49.142;7.768;2023-04-01T00:29:02;14.13;;;4.67;;
5867;SDS011;2960;49.142;7.768;2023-04-01T00:31:30;10.13;;;4.40;;
5867;SDS011;2960;49.142;7.768;2023-04-01T00:33:57;9.27;;;4.13;;
5867;SDS011;2960;49.142;7.768;2023-04-01T00:36:26;11.40;;;4.60;;
5867;SDS011;2960;49.142;7.768;2023-04-01T00:38:53;9.67;;;4.13;;
5867;SDS011;2960;49.142;7.768;2023-04-01T00:41:20;9.63;;;4.60;;
5867;SDS011;2960;49.142;7.768;2023-04-01T00:43:49;9.20;;;4.30;;
5867;SDS011;2960;49.142;7.768;2023-04-01T00:46:17;9.50;;;4.33;;
5867;SDS011;2960;49.142;7.768;2023-04-01T00:48:46;9.43;;;4.57;;
5867;SDS011;2960;49.142;7.768;2023-04-01T00:51:18;11.50;;;4.47;;
5867;SDS011;2960;49.142;7.768;2023-04-01T00:53:51;9.30;;;4.00;;
5867;SDS011;2960;49.142;7.768;2023-04-01T00:56:21;9.20;;;4.30;;
5867;SDS011;2960;49.142;7.768;2023-04-01T00:58:54;9.60;;;4.23;;
5867;SDS011;2960;49.142;7.768;2023-04-01T01:01:25;10.23;;;4.37;;
5867;SDS011;2960;49.142;7.768;2023-04-01T01:03:54;9.53;;;4.27;;
5867;SDS011;2960;49.142;7.768;2023-04-01T01:06:26;9.57;;;4.07;;
5867;SDS011;2960;49.142;7.768;2023-04-01T01:09:23;9.80;;;4.30;;
5867;SDS011;2960;49.142;7.768;2023-04-01T01:11:59;10.90;;;4.67;;
5867;SDS011;2960;49.142;7.768;2023-04-01T01:14:38;9.87;;;4.43;;
5867;SDS011;2960;49.142;7.768;2023-04-01T01:17:19;9.70;;;4.33;;
5867;SDS011;2960;49.142;7.768;2023-04-01T01:20:03;10.10;;;4.30;;
5867;SDS011;2960;49.142;7.768;2023-04-01T01:23:06;14.80;;;4.70;;
5867;SDS011;2960;49.142;7.768;2023-04-01T01:26:28;9.40;;;4.00;;
5867;SDS011;2960;49.142;7.768;2023-04-01T01:29:16;9.27;;;4.40;;
5867;SDS011;2960;49.142;7.768;2023-04-01T01:32:11;9.37;;;4.37;;
5867;SDS011;2960;49.142;7.768;2023-04-01T01:34:55;9.23;;;4.30;;
5867;SDS011;2960;49.142;7.768;2023-04-01T01:37:37;10.30;;;4.20;;
5867;SDS011;2960;49.142;7.768;2023-04-01T01:40:07;9.40;;;4.20;;
5867;SDS011;2960;49.142;7.768;2023-04-01T01:42:38;10.90;;;4.40;;
5867;SDS011;2960;49.142;7.768;2023-04-01T01:45:09;10.30;;;4.50;;
5867;SDS011;2960;49.142;7.768;2023-04-01T01:47:38;9.67;;;4.37;;
5867;SDS011;2960;49.142;7.768;2023-04-01T01:50:09;9.27;;;4.40;;
5867;SDS011;2960;49.142;7.768;2023-04-01T01:52:37;10.77;;;4.50;;
5867;SDS011;2960;49.142;7.768;2023-04-01T01:57:54;12.63;;;4.30;;
5867;SDS011;2960;49.142;7.768;2023-04-01T02:00:25;9.50;;;3.97;;
5867;SDS011;2960;49.142;7.768;2023-04-01T02:02:53;11.00;;;4.07;;
5867;SDS011;2960;49.142;7.768;2023-04-01T02:05:23;13.20;;;4.40;;
5867;SDS011;2960;49.142;7.768;2023-04-01T02:07:55;9.97;;;4.03;;
5867;SDS011;2960;49.142;7.768;2023-04-01T02:10:27;11.97;;;4.30;;
5867;SDS011;2960;49.142;7.768;2023-04-01T02:12:59;9.40;;;3.93;;
5867;SDS011;2960;49.142;7.768;2023-04-01T02:15:35;11.73;;;4.10;;
5867;SDS011;2960;49.142;7.768;2023-04-01T02:18:08;10.83;;;4.20;;
5867;SDS011;2960;49.142;7.768;2023-04-01T02:20:38;12.20;;;4.40;;
5867;SDS011;2960;49.142;7.768;2023-04-01T02:23:06;9.80;;;3.90;;
5867;SDS011;2960;49.142;7.768;2023-04-01T02:25:36;10.20;;;4.33;;
5867;SDS011;2960;49.142;7.768;2023-04-01T02:28:06;9.80;;;4.40;;
5867;SDS011;2960;49.142;7.768;2023-04-01T02:30:35;9.30;;;4.00;;
5867;SDS011;2960;49.142;7.768;2023-04-01T02:33:05;11.37;;;4.10;;
5867;SDS011;2960;49.142;7.768;2023-04-01T02:35:33;9.27;;;3.90;;
5867;SDS011;2960;49.142;7.768;2023-04-01T02:38:03;8.97;;;3.70;;
5867;SDS011;2960;49.142;7.768;2023-04-01T02:40:41;9.50;;;4.00;;
5867;SDS011;2960;49.142;7.768;2023-04-01T02:43:11;9.17;;;3.80;;
5867;SDS011;2960;49.142;7.768;2023-04-01T02:45:38;9.50;;;3.73;;
5867;SDS011;2960;49.142;7.768;2023-04-01T02:48:05;9.80;;;4.10;;
5867;SDS011;2960;49.142;7.768;2023-04-01T02:50:32;9.40;;;3.77;;
5867;SDS011;2960;49.142;7.768;2023-04-01T02:53:00;10.63;;;4.10;;
5867;SDS011;2960;49.142;7.768;2023-04-01T02:55:30;9.77;;;3.90;;
5867;SDS011;2960;49.142;7.768;2023-04-01T02:57:57;10.47;;;4.10;;
5867;SDS011;2960;49.142;7.768;2023-04-01T03:00:27;9.80;;;4.60;;
5867;SDS011;2960;49.142;7.768;2023-04-01T03:02:56;10.90;;;4.00;;
5867;SDS011;2960;49.142;7.768;2023-04-01T03:05:23;9.30;;;3.87;;
5867;SDS011;2960;49.142;7.768;2023-04-01T03:07:51;10.20;;;4.20;;
5867;SDS011;2960;49.142;7.768;2023-04-01T03:10:18;9.70;;;3.80;;
5867;SDS011;2960;49.142;7.768;2023-04-01T03:12:46;10.83;;;4.20;;
5867;SDS011;2960;49.142;7.768;2023-04-01T03:15:14;10.20;;;4.33;;
5867;SDS011;2960;49.142;7.768;2023-04-01T03:17:41;9.17;;;4.10;;
5867;SDS011;2960;49.142;7.768;2023-04-01T03:20:09;9.87;;;4.17;;
5867;SDS011;2960;49.142;7.768;2023-04-01T03:22:37;10.30;;;4.03;;
5867;SDS011;2960;49.142;7.768;2023-04-01T03:25:05;9.03;;;3.80;;
5867;SDS011;2960;49.142;7.768;2023-04-01T03:27:33;10.30;;;3.97;;
5867;SDS011;2960;49.142;7.768;2023-04-01T03:30:02;8.90;;;3.67;;
5867;SDS011;2960;49.142;7.768;2023-04-01T03:32:31;9.10;;;3.73;;
5867;SDS011;2960;49.142;7.768;2023-04-01T03:34:58;9.00;;;3.83;;
5867;SDS011;2960;49.142;7.768;2023-04-01T03:37:26;10.20;;;3.80;;
5867;SDS011;2960;49.142;7.768;2023-04-01T03:39:53;9.60;;;3.90;;
5867;SDS011;2960;49.142;7.768;2023-04-01T03:42:21;9.30;;;3.87;;
5867;SDS011;2960;49.142;7.768;2023-04-01T03:44:48;9.23;;;4.20;;
5867;SDS011;2960;49.142;7.768;2023-04-01T03:47:16;9.17;;;4.07;;
5867;SDS011;2960;49.142;7.768;2023-04-01T03:49:43;9.20;;;3.80;;
5867;SDS011;2960;49.142;7.768;2023-04-01T03:52:10;9.30;;;3.90;;
5867;SDS011;2960;49.142;7.768;2023-04-01T03:54:38;8.83;;;3.70;;
5867;SDS011;2960;49.142;7.768;2023-04-01T03:57:05;9.70;;;4.00;;
5867;SDS011;2960;49.142;7.768;2023-04-01T03:59:32;9.50;;;4.00;;
5867;SDS011;2960;49.142;7.768;2023-04-01T04:02:00;10.80;;;4.00;;
5867;SDS011;2960;49.142;7.768;2023-04-01T04:04:29;9.30;;;3.80;;
5867;SDS011;2960;49.142;7.768;2023-04-01T04:06:57;10.10;;;3.90;;
5867;SDS011;2960;49.142;7.768;2023-04-01T04:09:24;10.80;;;3.97;;
5867;SDS011;2960;49.142;7.768;2023-04-01T04:11:51;10.37;;;3.90;;
5867;SDS011;2960;49.142;7.768;2023-04-01T04:14:19;10.70;;;3.80;;
5867;SDS011;2960;49.142;7.768;2023-04-01T04:16:46;13.43;;;3.83;;
5867;SDS011;2960;49.142;7.768;2023-04-01T04:19:13;10.07;;;3.97;;
5867;SDS011;2960;49.142;7.768;2023-04-01T04:21:41;9.10;;;3.50;;
5867;SDS011;2960;49.142;7.768;2023-04-01T04:24:09;9.30;;;3.80;;
5867;SDS011;2960;49.142;7.768;2023-04-01T04:26:36;9.13;;;3.83;;
5867;SDS011;2960;49.142;7.768;2023-04-01T04:29:03;9.10;;;3.70;;
5867;SDS011;2960;49.142;7.768;2023-04-01T04:31:30;8.83;;;3.80;;
5867;SDS011;2960;49.142;7.768;2023-04-01T04:33:58;14.30;;;3.70;;
5867;SDS011;2960;49.142;7.768;2023-04-01T04:36:26;8.70;;;3.33;;
5867;SDS011;2960;49.142;7.768;2023-04-01T04:38:55;9.67;;;3.40;;
5867;SDS011;2960;49.142;7.768;2023-04-01T04:41:23;9.03;;;3.60;;
5867;SDS011;2960;49.142;7.768;2023-04-01T04:43:51;11.07;;;3.80;;
5867;SDS011;2960;49.142;7.768;2023-04-01T04:46:20;9.20;;;3.70;;
5867;SDS011;2960;49.142;7.768;2023-04-01T04:48:50;10.10;;;3.70;;
5867;SDS011;2960;49.142;7.768;2023-04-01T04:51:18;8.87;;;3.60;;
5867;SDS011;2960;49.142;7.768;2023-04-01T04:53:46;10.10;;;3.70;;
5867;SDS011;2960;49.142;7.768;2023-04-01T04:56:18;9.70;;;3.60;;
5867;SDS011;2960;49.142;7.768;2023-04-01T04:58:46;8.63;;;3.40;;
5867;SDS011;2960;49.142;7.768;2023-04-01T05:01:14;11.17;;;3.90;;
5867;SDS011;2960;49.142;7.768;2023-04-01T05:03:42;12.90;;;3.80;;
5867;SDS011;2960;49.142;7.768;2023-04-01T05:06:10;9.13;;;3.53;;
5867;SDS011;2960;49.142;7.768;2023-04-01T05:08:39;10.40;;;3.47;;
5867;SDS011;2960;49.142;7.768;2023-04-01T05:11:09;9.00;;;3.23;;
5867;SDS011;2960;49.142;7.768;2023-04-01T05:13:40;9.30;;;3.53;;
5867;SDS011;2960;49.142;7.768;2023-04-01T05:16:08;8.77;;;3.40;;
5867;SDS011;2960;49.142;7.768;2023-04-01T05:18:35;9.07;;;3.40;;
5867;SDS011;2960;49.142;7.768;2023-04-01T05:21:02;9.37;;;3.40;;
5867;SDS011;2960;49.142;7.768;2023-04-01T05:23:30;11.10;;;4.10;;
5867;SDS011;2960;49.142;7.768;2023-04-01T05:25:58;11.43;;;3.67;;
5867;SDS011;2960;49.142;7.768;2023-04-01T05:28:29;8.90;;;3.20;;
5867;SDS011;2960;49.142;7.768;2023-04-01T05:30:59;9.10;;;3.40;;
5867;SDS011;2960;49.142;7.768;2023-04-01T05:33:27;9.00;;;3.30;;
5867;SDS011;2960;49.142;7.768;2023-04-01T05:35:55;12.40;;;3.30;;
5867;SDS011;2960;49.142;7.768;2023-04-01T05:38:22;9.37;;;3.50;;
5867;SDS011;2960;49.142;7.768;2023-04-01T05:40:49;9.83;;;3.90;;
5867;SDS011;2960;49.142;7.768;2023-04-01T05:43:16;8.80;;;3.57;;
5867;SDS011;2960;49.142;7.768;2023-04-01T05:45:43;9.50;;;3.50;;
5867;SDS011;2960;49.142;7.768;2023-04-01T05:48:12;13.80;;;3.57;;
5867;SDS011;2960;49.142;7.768;2023-04-01T05:50:40;9.10;;;3.60;;
5867;SDS011;2960;49.142;7.768;2023-04-01T05:53:07;8.67;;;3.17;;
5867;SDS011;2960;49.142;7.768;2023-04-01T05:55:34;10.13;;;3.60;;
5867;SDS011;2960;49.142;7.768;2023-04-01T05:58:02;9.37;;;3.50;;
5867;SDS011;2960;49.142;7.768;2023-04-01T06:00:29;9.20;;;3.60;;
5867;SDS011;2960;49.142;7.768;2023-04-01T06:02:57;11.20;;;3.70;;
5867;SDS011;2960;49.142;7.768;2023-04-01T06:05:28;9.43;;;3.80;;
5867;SDS011;2960;49.142;7.768;2023-04-01T06:08:01;12.23;;;3.37;;
5867;SDS011;2960;49.142;7.768;2023-04-01T06:10:39;10.23;;;3.73;;
5867;SDS011;2960;49.142;7.768;2023-04-01T06:13:41;10.20;;;3.10;;
5867;SDS011;2960;49.142;7.768;2023-04-01T06:16:27;9.50;;;3.30;;
5867;SDS011;2960;49.142;7.768;2023-04-01T06:19:09;8.47;;;3.10;;
5867;SDS011;2960;49.142;7.768;2023-04-01T06:24:56;8.70;;;2.93;;
5867;SDS011;2960;49.142;7.768;2023-04-01T06:27:55;8.90;;;3.10;;
5867;SDS011;2960;49.142;7.768;2023-04-01T06:30:58;8.80;;;3.27;;
5867;SDS011;2960;49.142;7.768;2023-04-01T06:33:39;9.20;;;3.20;;
5867;SDS011;2960;49.142;7.768;2023-04-01T06:36:21;8.60;;;3.00;;
5867;SDS011;2960;49.142;7.768;2023-04-01T06:39:11;8.80;;;3.20;;
5867;SDS011;2960;49.142;7.768;2023-04-01T06:41:54;9.10;;;3.10;;
5867;SDS011;2960;49.142;7.768;2023-04-01T06:44:44;8.80;;;3.00;;
5867;SDS011;2960;49.142;7.768;2023-04-01T06:47:23;9.43;;;3.30;;
5867;SDS011;2960;49.142;7.768;2023-04-01T06:50:07;10.87;;;3.20;;
5867;SDS011;2960;49.142;7.768;2023-04-01T06:52:48;11.20;;;3.00;;
5867;SDS011;2960;49.142;7.768;2023-04-01T06:55:27;8.70;;;3.20;;
5867;SDS011;2960;49.142;7.768;2023-04-01T06:58:03;9.07;;;3.10;;
5867;SDS011;2960;49.142;7.768;2023-04-01T07:00:36;9.10;;;3.40;;
5867;SDS011;2960;49.142;7.768;2023-04-01T07:03:10;9.70;;;3.10;;
5867;SDS011;2960;49.142;7.768;2023-04-01T07:05:46;8.80;;;3.00;;
5867;SDS011;2960;49.142;7.768;2023-04-01T07:08:16;8.80;;;3.17;;
5867;SDS011;2960;49.142;7.768;2023-04-01T07:10:52;8.97;;;3.13;;
5867;SDS011;2960;49.142;7.768;2023-04-01T07:13:23;8.50;;;3.10;;
5867;SDS011;2960;49.142;7.768;2023-04-01T07:15:59;9.17;;;3.13;;
5867;SDS011;2960;49.142;7.768;2023-04-01T07:18:40;8.43;;;2.90;;
5867;SDS011;2960;49.142;7.768;2023-04-01T07:21:14;8.53;;;3.00;;
5867;SDS011;2960;49.142;7.768;2023-04-01T07:23:51;8.40;;;3.10;;
5867;SDS011;2960;49.142;7.768;2023-04-01T07:26:26;9.40;;;3.30;;
5867;SDS011;2960;49.142;7.768;2023-04-01T07:28:54;8.83;;;3.30;;
5867;SDS011;2960;49.142;7.768;2023-04-01T07:31:30;9.00;;;3.20;;
5867;SDS011;2960;49.142;7.768;2023-04-01T07:34:15;8.90;;;3.30;;
5867;SDS011;2960;49.142;7.768;2023-04-01T07:36:51;8.57;;;3.07;;
5867;SDS011;2960;49.142;7.768;2023-04-01T07:39:30;9.37;;;3.00;;
5867;SDS011;2960;49.142;7.768;2023-04-01T07:42:14;8.97;;;3.23;;
5867;SDS011;2960;49.142;7.768;2023-04-01T07:44:53;8.43;;;3.00;;
5867;SDS011;2960;49.142;7.768;2023-04-01T07:47:34;8.43;;;2.83;;
5867;SDS011;2960;49.142;7.768;2023-04-01T07:50:26;11.40;;;3.30;;
5867;SDS011;2960;49.142;7.768;2023-04-01T07:53:03;8.50;;;3.10;;
5867;SDS011;2960;49.142;7.768;2023-04-01T07:55:41;9.37;;;2.97;;
5867;SDS011;2960;49.142;7.768;2023-04-01T07:58:17;10.33;;;2.93;;
5867;SDS011;2960;49.142;7.768;2023-04-01T08:00:56;8.60;;;2.80;;
5867;SDS011;2960;49.142;7.768;2023-04-01T08:03:31;9.30;;;3.10;;
5867;SDS011;2960;49.142;7.768;2023-04-01T08:06:11;8.53;;;3.00;;
5867;SDS011;2960;49.142;7.768;2023-04-01T08:08:47;9.30;;;3.20;;
5867;SDS011;2960;49.142;7.768;2023-04-01T08:11:27;8.47;;;2.90;;
5867;SDS011;2960;49.142;7.768;2023-04-01T08:14:11;8.80;;;2.80;;
5867;SDS011;2960;49.142;7.768;2023-04-01T08:16:50;9.10;;;2.97;;
5867;SDS011;2960;49.142;7.768;2023-04-01T08:19:30;9.77;;;3.10;;
5867;SDS011;2960;49.142;7.768;2023-04-01T08:22:12;8.70;;;3.20;;
5867;SDS011;2960;49.142;7.768;2023-04-01T08:24:46;8.50;;;3.07;;
5867;SDS011;2960;49.142;7.768;2023-04-01T08:27:16;8.47;;;3.00;;
5867;SDS011;2960;49.142;7.768;2023-04-01T08:29:50;8.90;;;3.20;;
5867;SDS011;2960;49.142;7.768;2023-04-01T08:32:25;8.50;;;2.90;;
5867;SDS011;2960;49.142;7.768;2023-04-01T08:34:58;8.50;;;3.10;;
5867;SDS011;2960;49.142;7.768;2023-04-01T08:37:35;8.37;;;3.03;;
5867;SDS011;2960;49.142;7.768;2023-04-01T08:40:13;8.70;;;3.10;;
5867;SDS011;2960;49.142;7.768;2023-04-01T08:43:05;9.07;;;3.00;;
5867;SDS011;2960;49.142;7.768;2023-04-01T08:48:47;8.63;;;3.00;;
5867;SDS011;2960;49.142;7.768;2023-04-01T08:55:00;8.33;;;2.90;;
5867;SDS011;2960;49.142;7.768;2023-04-01T08:58:02;8.90;;;3.10;;
5867;SDS011;2960;49.142;7.768;2023-04-01T09:01:16;8.30;;;2.50;;
5867;SDS011;2960;49.142;7.768;2023-04-01T09:04:06;8.30;;;2.83;;
5867;SDS011;2960;49.142;7.768;2023-04-01T09:06:55;8.30;;;2.70;;
5867;SDS011;2960;49.142;7.768;2023-04-01T09:09:48;8.40;;;2.90;;
5867;SDS011;2960;49.142;7.768;2023-04-01T09:12:56;8.60;;;3.03;;
5867;SDS011;2960;49.142;7.768;2023-04-01T09:18:48;8.37;;;2.93;;
5867;SDS011;2960;49.142;7.768;2023-04-01T09:21:49;8.60;;;3.00;;
5867;SDS011;2960;49.142;7.768;2023-04-01T09:24:58;8.17;;;2.70;;
5867;SDS011;2960;49.142;7.768;2023-04-01T09:27:43;8.27;;;2.80;;
5867;SDS011;2960;49.142;7.768;2023-04-01T09:30:27;8.60;;;2.90;;
5867;SDS011;2960;49.142;7.768;2023-04-01T09:33:16;8.40;;;3.07;;
5867;SDS011;2960;49.142;7.768;2023-04-01T09:39:34;8.50;;;3.10;;
5867;SDS011;2960;49.142;7.768;2023-04-01T09:42:07;8.53;;;3.20;;
5867;SDS011;2960;49.142;7.768;2023-04-01T09:44:56;8.50;;;2.90;;
5867;SDS011;2960;49.142;7.768;2023-04-01T09:47:34;8.47;;;3.00;;
5867;SDS011;2960;49.142;7.768;2023-04-01T09:50:24;8.60;;;2.93;;
5867;SDS011;2960;49.142;7.768;2023-04-01T09:53:04;8.37;;;2.77;;
5867;SDS011;2960;49.142;7.768;2023-04-01T09:59:01;8.43;;;3.10;;
5867;SDS011;2960;49.142;7.768;2023-04-01T10:02:07;8.47;;;2.67;;
5867;SDS011;2960;49.142;7.768;2023-04-01T10:05:29;9.47;;;3.00;;
5867;SDS011;2960;49.142;7.768;2023-04-01T10:12:21;9.33;;;3.20;;
5867;SDS011;2960;49.142;7.768;2023-04-01T10:15:43;8.23;;;2.80;;
5867;SDS011;2960;49.142;7.768;2023-04-01T10:18:46;8.23;;;2.80;;
5867;SDS011;2960;49.142;7.768;2023-04-01T10:22:04;8.30;;;2.83;;
5867;SDS011;2960;49.142;7.768;2023-04-01T10:27:59;8.67;;;2.83;;
5867;SDS011;2960;49.142;7.768;2023-04-01T10:37:34;8.80;;;2.90;;
5867;SDS011;2960;49.142;7.768;2023-04-01T10:40:36;8.60;;;3.00;;
5867;SDS011;2960;49.142;7.768;2023-04-01T10:43:49;8.53;;;3.03;;
5867;SDS011;2960;49.142;7.768;2023-04-01T10:46:50;8.27;;;2.80;;
5867;SDS011;2960;49.142;7.768;2023-04-01T10:56:38;8.60;;;3.00;;
5867;SDS011;2960;49.142;7.768;2023-04-01T11:05:58;8.40;;;2.90;;
5867;SDS011;2960;49.142;7.768;2023-04-01T11:09:19;8.70;;;3.10;;
5867;SDS011;2960;49.142;7.768;2023-04-01T11:16:06;8.43;;;3.10;;
5867;SDS011;2960;49.142;7.768;2023-04-01T11:22:34;9.10;;;3.20;;
5867;SDS011;2960;49.142;7.768;2023-04-01T11:25:45;8.20;;;2.67;;
5867;SDS011;2960;49.142;7.768;2023-04-01T11:32:07;8.50;;;2.90;;
5867;SDS011;2960;49.142;7.768;2023-04-01T11:35:06;8.70;;;2.93;;
5867;SDS011;2960;49.142;7.768;2023-04-01T11:37:54;8.50;;;2.97;;
5867;SDS011;2960;49.142;7.768;2023-04-01T11:40:34;8.70;;;3.10;;
5867;SDS011;2960;49.142;7.768;2023-04-01T11:43:16;8.90;;;3.00;;
5867;SDS011;2960;49.142;7.768;2023-04-01T11:45:56;8.47;;;3.03;;
5867;SDS011;2960;49.142;7.768;2023-04-01T11:48:32;8.43;;;3.03;;
5867;SDS011;2960;49.142;7.768;2023-04-01T11:54:06;8.33;;;2.80;;
5867;SDS011;2960;49.142;7.768;2023-04-01T11:56:57;8.53;;;3.30;;
5867;SDS011;2960;49.142;7.768;2023-04-01T11:59:51;8.57;;;3.20;;
5867;SDS011;2960;49.142;7.768;2023-04-01T12:02:47;8.43;;;3.00;;
5867;SDS011;2960;49.142;7.768;2023-04-01T12:05:36;8.87;;;2.90;;
5867;SDS011;2960;49.142;7.768;2023-04-01T12:08:11;8.60;;;3.10;;
5867;SDS011;2960;49.142;7.768;2023-04-01T12:10:59;8.47;;;3.00;;
5867;SDS011;2960;49.142;7.768;2023-04-01T12:13:35;8.40;;;3.00;;
5867;SDS011;2960;49.142;7.768;2023-04-01T12:19:17;8.40;;;2.90;;
5867;SDS011;2960;49.142;7.768;2023-04-01T12:21:59;8.43;;;3.00;;
5867;SDS011;2960;49.142;7.768;2023-04-01T12:24:58;8.50;;;2.80;;
5867;SDS011;2960;49.142;7.768;2023-04-01T12:27:39;8.50;;;3.00;;
5867;SDS011;2960;49.142;7.768;2023-04-01T12:30:27;8.90;;;3.20;;
5867;SDS011;2960;49.142;7.768;2023-04-01T12:33:18;9.57;;;3.17;;
5867;SDS011;2960;49.142;7.768;2023-04-01T12:36:32;8.57;;;3.30;;
5867;SDS011;2960;49.142;7.768;2023-04-01T12:42:16;8.60;;;3.37;;
5867;SDS011;2960;49.142;7.768;2023-04-01T12:57:55;8.60;;;3.23;;
5867;SDS011;2960;49.142;7.768;2023-04-01T13:03:58;8.57;;;3.30;;
5867;SDS011;2960;49.142;7.768;2023-04-01T13:07:12;8.70;;;3.40;;
5867;SDS011;2960;49.142;7.768;2023-04-01T13:09:57;8.70;;;3.30;;
5867;SDS011;2960;49.142;7.768;2023-04-01T13:12:36;8.53;;;3.27;;
5867;SDS011;2960;49.142;7.768;2023-04-01T13:15:44;8.40;;;2.97;;
5867;SDS011;2960;49.142;7.768;2023-04-01T13:18:20;8.90;;;3.40;;
5867;SDS011;2960;49.142;7.768;2023-04-01T13:21:00;8.90;;;3.30;;
5867;SDS011;2960;49.142;7.768;2023-04-01T13:23:37;8.57;;;3.00;;
5867;SDS011;2960;49.142;7.768;2023-04-01T13:26:18;8.63;;;3.40;;
5867;SDS011;2960;49.142;7.768;2023-04-01T13:28:56;9.20;;;3.50;;
5867;SDS011;2960;49.142;7.768;2023-04-01T13:31:43;8.77;;;3.20;;
5867;SDS011;2960;49.142;7.768;2023-04-01T13:34:35;8.80;;;3.33;;
5867;SDS011;2960;49.142;7.768;2023-04-01T13:37:20;8.77;;;3.40;;
5867;SDS011;2960;49.142;7.768;2023-04-01T13:40:02;8.87;;;3.00;;
5867;SDS011;2960;49.142;7.768;2023-04-01T13:42:53;9.00;;;3.20;;
5867;SDS011;2960;49.142;7.768;2023-04-01T13:45:24;9.27;;;3.53;;
5867;SDS011;2960;49.142;7.768;2023-04-01T13:51:09;10.70;;;3.10;;
5867;SDS011;2960;49.142;7.768;2023-04-01T13:54:00;8.80;;;3.10;;
5867;SDS011;2960;49.142;7.768;2023-04-01T13:56:50;8.67;;;3.33;;
5867;SDS011;2960;49.142;7.768;2023-04-01T13:59:42;8.60;;;3.13;;
5867;SDS011;2960;49.142;7.768;2023-04-01T14:05:47;9.10;;;3.43;;
5867;SDS011;2960;49.142;7.768;2023-04-01T14:08:32;8.43;;;2.90;;
5867;SDS011;2960;49.142;7.768;2023-04-01T14:11:19;8.50;;;3.10;;
5867;SDS011;2960;49.142;7.768;2023-04-01T14:13:57;8.63;;;3.20;;
5867;SDS011;2960;49.142;7.768;2023-04-01T14:20:08;8.50;;;2.97;;
5867;SDS011;2960;49.142;7.768;2023-04-01T14:22:54;8.37;;;2.90;;
5867;SDS011;2960;49.142;7.768;2023-04-01T14:25:41;9.93;;;3.37;;
5867;SDS011;2960;49.142;7.768;2023-04-01T14:28:32;9.87;;;3.20;;
5867;SDS011;2960;49.142;7.768;2023-04-01T14:31:15;8.83;;;3.20;;
5867;SDS011;2960;49.142;7.768;2023-04-01T14:34:06;8.67;;;3.00;;
5867;SDS011;2960;49.142;7.768;2023-04-01T14:37:07;8.70;;;2.90;;
5867;SDS011;2960;49.142;7.768;2023-04-01T14:40:05;8.70;;;3.00;;
5867;SDS011;2960;49.142;7.768;2023-04-01T14:42:59;8.73;;;3.30;;
5867;SDS011;2960;49.142;7.768;2023-04-01T14:45:46;9.00;;;3.03;;
5867;SDS011;2960;49.142;7.768;2023-04-01T14:48:51;10.80;;;3.30;;
5867;SDS011;2960;49.142;7.768;2023-04-01T14:51:23;9.10;;;3.50;;
5867;SDS011;2960;49.142;7.768;2023-04-01T14:54:02;9.40;;;3.40;;
5867;SDS011;2960;49.142;7.768;2023-04-01T14:56:35;8.60;;;3.27;;
5867;SDS011;2960;49.142;7.768;2023-04-01T14:59:07;9.20;;;3.13;;
5867;SDS011;2960;49.142;7.768;2023-04-01T15:01:42;9.40;;;3.67;;
5867;SDS011;2960;49.142;7.768;2023-04-01T15:04:26;10.93;;;3.40;;
5867;SDS011;2960;49.142;7.768;2023-04-01T15:10:41;8.50;;;2.90;;
5867;SDS011;2960;49.142;7.768;2023-04-01T15:13:50;8.90;;;3.43;;
5867;SDS011;2960;49.142;7.768;2023-04-01T15:16:44;8.33;;;3.10;;
5867;SDS011;2960;49.142;7.768;2023-04-01T15:19:23;9.00;;;3.20;;
5867;SDS011;2960;49.142;7.768;2023-04-01T15:22:12;8.50;;;2.80;;
5867;SDS011;2960;49.142;7.768;2023-04-01T15:25:09;9.90;;;2.97;;
5867;SDS011;2960;49.142;7.768;2023-04-01T15:27:51;8.90;;;3.10;;
5867;SDS011;2960;49.142;7.768;2023-04-01T15:30:30;8.63;;;3.40;;
5867;SDS011;2960;49.142;7.768;2023-04-01T15:36:10;8.80;;;3.20;;
5867;SDS011;2960;49.142;7.768;2023-04-01T15:38:51;8.40;;;2.83;;
5867;SDS011;2960;49.142;7.768;2023-04-01T15:41:24;8.50;;;3.03;;
5867;SDS011;2960;49.142;7.768;2023-04-01T15:44:02;8.90;;;2.93;;
5867;SDS011;2960;49.142;7.768;2023-04-01T15:46:31;8.37;;;2.97;;
5867;SDS011;2960;49.142;7.768;2023-04-01T15:49:18;9.80;;;3.30;;
5867;SDS011;2960;49.142;7.768;2023-04-01T15:51:58;8.90;;;3.33;;
5867;SDS011;2960;49.142;7.768;2023-04-01T15:57:49;9.77;;;3.27;;
5867;SDS011;2960;49.142;7.768;2023-04-01T16:00:33;8.90;;;3.30;;
5867;SDS011;2960;49.142;7.768;2023-04-01T16:03:17;9.50;;;3.43;;
5867;SDS011;2960;49.142;7.768;2023-04-01T16:06:07;9.10;;;3.73;;
5867;SDS011;2960;49.142;7.768;2023-04-01T16:08:56;8.90;;;3.40;;
5867;SDS011;2960;49.142;7.768;2023-04-01T16:11:40;9.07;;;3.50;;
5867;SDS011;2960;49.142;7.768;2023-04-01T16:14:19;10.07;;;3.57;;
5867;SDS011;2960;49.142;7.768;2023-04-01T16:17:00;9.43;;;3.57;;
5867;SDS011;2960;49.142;7.768;2023-04-01T16:19:49;9.50;;;3.60;;
5867;SDS011;2960;49.142;7.768;2023-04-01T16:22:21;8.87;;;3.50;;
5867;SDS011;2960;49.142;7.768;2023-04-01T16:24:54;9.60;;;3.53;;
5867;SDS011;2960;49.142;7.768;2023-04-01T16:27:35;9.00;;;3.40;;
5867;SDS011;2960;49.142;7.768;2023-04-01T16:30:22;8.73;;;3.27;;
5867;SDS011;2960;49.142;7.768;2023-04-01T16:33:01;8.80;;;3.47;;
5867;SDS011;2960;49.142;7.768;2023-04-01T16:35:35;9.07;;;3.17;;
5867;SDS011;2960;49.142;7.768;2023-04-01T16:38:11;11.10;;;3.80;;
5867;SDS011;2960;49.142;7.768;2023-04-01T16:40:47;10.07;;;3.60;;
5867;SDS011;2960;49.142;7.768;2023-04-01T16:43:28;10.90;;;3.50;;
5867;SDS011;2960;49.142;7.768;2023-04-01T16:49:03;9.37;;;3.57;;
5867;SDS011;2960;49.142;7.768;2023-04-01T16:51:52;9.37;;;3.63;;
5867;SDS011;2960;49.142;7.768;2023-04-01T16:54:30;8.70;;;3.47;;
5867;SDS011;2960;49.142;7.768;2023-04-01T16:57:17;9.47;;;3.40;;
5867;SDS011;2960;49.142;7.768;2023-04-01T16:59:51;9.23;;;3.53;;
5867;SDS011;2960;49.142;7.768;2023-04-01T17:02:26;8.67;;;3.40;;
5867;SDS011;2960;49.142;7.768;2023-04-01T17:04:59;8.90;;;3.40;;
5867;SDS011;2960;49.142;7.768;2023-04-01T17:07:35;8.60;;;3.30;;
5867;SDS011;2960;49.142;7.768;2023-04-01T17:13:11;9.00;;;3.20;;
5867;SDS011;2960;49.142;7.768;2023-04-01T17:16:03;8.80;;;3.13;;
5867;SDS011;2960;49.142;7.768;2023-04-01T17:19:06;9.30;;;3.50;;
5867;SDS011;2960;49.142;7.768;2023-04-01T17:21:54;9.23;;;3.37;;
5867;SDS011;2960;49.142;7.768;2023-04-01T17:24:37;8.50;;;3.13;;
5867;SDS011;2960;49.142;7.768;2023-04-01T17:27:39;8.50;;;2.90;;
5867;SDS011;2960;49.142;7.768;2023-04-01T17:33:03;9.33;;;3.43;;
5867;SDS011;2960;49.142;7.768;2023-04-01T17:35:56;9.37;;;3.23;;
5867;SDS011;2960;49.142;7.768;2023-04-01T17:41:26;8.73;;;3.30;;
5867;SDS011;2960;49.142;7.768;2023-04-01T17:44:12;9.00;;;3.43;;
5867;SDS011;2960;49.142;7.768;2023-04-01T17:47:07;9.20;;;3.30;;
5867;SDS011;2960;49.142;7.768;2023-04-01T17:53:09;9.50;;;3.50;;
5867;SDS011;2960;49.142;7.768;2023-04-01T17:55:48;9.50;;;3.40;;
5867;SDS011;2960;49.142;7.768;2023-04-01T17:58:38;10.40;;;3.60;;
5867;SDS011;2960;49.142;7.768;2023-04-01T18:01:18;9.53;;;3.60;;
5867;SDS011;2960;49.142;7.768;2023-04-01T18:04:04;9.67;;;3.53;;
5867;SDS011;2960;49.142;7.768;2023-04-01T18:06:46;8.70;;;3.30;;
5867;SDS011;2960;49.142;7.768;2023-04-01T18:09:56;9.03;;;3.50;;
5867;SDS011;2960;49.142;7.768;2023-04-01T18:12:40;9.53;;;3.70;;
5867;SDS011;2960;49.142;7.768;2023-04-01T18:15:34;10.33;;;3.90;;
5867;SDS011;2960;49.142;7.768;2023-04-01T18:18:16;9.20;;;3.43;;
5867;SDS011;2960;49.142;7.768;2023-04-01T18:21:03;8.73;;;3.30;;
5867;SDS011;2960;49.142;7.768;2023-04-01T18:23:39;8.93;;;3.40;;
5867;SDS011;2960;49.142;7.768;2023-04-01T18:26:13;9.00;;;3.37;;
5867;SDS011;2960;49.142;7.768;2023-04-01T18:28:48;8.57;;;3.20;;